createdAt,value
2018-10-11T00:01:33.979Z,14.90
2018-10-11T00:04:01.393Z,14.80
2018-10-11T00:06:29.028Z,14.80
2018-10-11T00:08:56.365Z,14.80
2018-10-11T00:11:23.749Z,14.80
2018-10-11T00:13:51.198Z,14.70
2018-10-11T00:16:18.581Z,14.70
2018-10-11T00:18:45.917Z,14.70
2018-10-11T00:21:13.338Z,14.60
2018-10-11T00:23:40.750Z,14.60
2018-10-11T00:26:08.457Z,14.60
2018-10-11T00:28:35.916Z,14.60
2018-10-11T00:31:03.583Z,14.60
2018-10-11T00:33:30.954Z,14.60
2018-10-11T00:35:58.378Z,14.60
2018-10-11T00:38:25.772Z,14.60
2018-10-11T00:40:53.245Z,14.60
2018-10-11T00:43:20.572Z,14.50
2018-10-11T00:45:47.953Z,14.50
2018-10-11T00:48:15.351Z,14.50
2018-10-11T00:50:42.776Z,14.50
2018-10-11T00:53:10.093Z,14.50
2018-10-11T00:55:37.545Z,14.40
2018-10-11T00:58:05.446Z,14.40
2018-10-11T01:00:32.893Z,14.40
2018-10-11T01:03:00.321Z,14.30
2018-10-11T01:05:27.672Z,14.30
2018-10-11T01:07:55.137Z,14.30
2018-10-11T01:10:23.170Z,14.30
2018-10-11T01:12:50.589Z,14.30
2018-10-11T01:15:18.014Z,14.30
2018-10-11T01:17:45.325Z,14.30
2018-10-11T01:20:12.673Z,14.20
2018-10-11T01:22:40.052Z,14.20
2018-10-11T01:25:07.443Z,14.20
2018-10-11T01:27:34.766Z,14.20
2018-10-11T01:30:02.246Z,14.20
2018-10-11T01:32:29.626Z,14.10
2018-10-11T01:34:57.133Z,14.10
2018-10-11T01:37:25.622Z,14.10
2018-10-11T01:39:53.065Z,14.10
2018-10-11T01:42:20.451Z,14.10
2018-10-11T01:44:47.849Z,14.10
2018-10-11T01:47:15.431Z,14.00
2018-10-11T01:49:42.770Z,14.00
2018-10-11T01:52:10.345Z,14.00
2018-10-11T01:54:37.962Z,14.00
2018-10-11T01:57:06.149Z,14.00
2018-10-11T01:59:33.608Z,14.00
2018-10-11T02:02:01.057Z,14.00
2018-10-11T02:04:28.655Z,14.00
2018-10-11T02:06:56.284Z,13.90
2018-10-11T02:09:23.871Z,13.90
2018-10-11T02:11:51.202Z,13.80
2018-10-11T02:14:18.605Z,13.90
2018-10-11T02:16:46.010Z,13.80
2018-10-11T02:19:13.358Z,13.80
2018-10-11T02:21:40.697Z,13.80
2018-10-11T02:24:08.465Z,13.80
2018-10-11T02:26:35.841Z,13.80
2018-10-11T02:29:03.296Z,13.80
2018-10-11T02:31:30.717Z,13.70
2018-10-11T02:33:59.135Z,13.70
2018-10-11T02:36:26.574Z,13.70
2018-10-11T02:38:53.999Z,13.70
2018-10-11T02:41:21.392Z,13.70
2018-10-11T02:43:48.761Z,13.60
2018-10-11T02:46:16.101Z,13.60
2018-10-11T02:48:43.441Z,13.60
2018-10-11T02:51:10.765Z,13.50
2018-10-11T02:53:38.200Z,13.50
2018-10-11T02:56:05.713Z,13.50
2018-10-11T02:58:44.861Z,13.50
2018-10-11T03:01:12.321Z,13.40
2018-10-11T03:03:39.714Z,13.40
2018-10-11T03:06:07.152Z,13.40
2018-10-11T03:08:34.596Z,13.40
2018-10-11T03:11:02.095Z,13.30
2018-10-11T03:13:29.516Z,13.30
2018-10-11T03:15:56.952Z,13.30
2018-10-11T03:18:24.543Z,13.30
2018-10-11T03:20:51.912Z,13.20
2018-10-11T03:23:19.246Z,13.30
2018-10-11T03:25:46.666Z,13.20
2018-10-11T03:28:15.385Z,13.20
2018-10-11T03:30:43.156Z,13.20
2018-10-11T03:33:11.442Z,13.20
2018-10-11T03:35:39.277Z,13.20
2018-10-11T03:38:06.685Z,13.20
2018-10-11T03:40:34.107Z,13.20
2018-10-11T03:43:01.566Z,13.20
2018-10-11T03:45:28.946Z,13.20
2018-10-11T03:47:56.360Z,13.20
2018-10-11T03:50:24.573Z,13.20
2018-10-11T03:52:51.925Z,13.20
2018-10-11T03:55:19.270Z,13.10
2018-10-11T04:00:20.833Z,13.10
2018-10-11T04:02:48.197Z,13.10
2018-10-11T04:05:15.582Z,13.10
2018-10-11T04:07:42.932Z,13.00
2018-10-11T04:10:10.293Z,13.00
2018-10-11T04:12:37.618Z,13.00
2018-10-11T04:15:05.044Z,12.90
2018-10-11T04:17:32.377Z,13.00
2018-10-11T04:19:59.702Z,13.00
2018-10-11T04:22:27.069Z,13.00
2018-10-11T04:24:54.538Z,13.00
2018-10-11T04:27:21.894Z,13.00
2018-10-11T04:29:49.445Z,13.00
2018-10-11T04:32:16.829Z,13.00
2018-10-11T04:34:44.230Z,13.00
2018-10-11T04:37:11.677Z,13.00
2018-10-11T04:39:39.049Z,12.90
2018-10-11T04:42:07.182Z,12.90
2018-10-11T04:44:35.602Z,12.90
2018-10-11T04:47:03.896Z,12.80
2018-10-11T04:49:31.220Z,12.80
2018-10-11T04:51:58.566Z,12.80
2018-10-11T04:54:26.032Z,12.80
2018-10-11T04:56:53.455Z,12.70
2018-10-11T04:59:20.821Z,12.70
2018-10-11T05:01:48.717Z,12.70
2018-10-11T05:04:16.117Z,12.60
2018-10-11T05:06:43.425Z,12.60
2018-10-11T05:09:10.741Z,12.60
2018-10-11T05:11:38.676Z,12.60
2018-10-11T05:14:07.210Z,12.60
2018-10-11T05:16:34.595Z,12.60
2018-10-11T05:19:03.387Z,12.60
2018-10-11T05:21:30.817Z,12.60
2018-10-11T05:23:58.193Z,12.60
2018-10-11T05:26:25.702Z,12.60
2018-10-11T05:28:53.113Z,12.60
2018-10-11T05:31:20.504Z,12.60
2018-10-11T05:33:47.977Z,12.60
2018-10-11T05:36:15.305Z,12.50
2018-10-11T05:38:43.359Z,12.50
2018-10-11T05:41:11.218Z,12.50
2018-10-11T05:43:38.665Z,12.50
2018-10-11T05:46:10.485Z,12.50
2018-10-11T05:48:37.866Z,12.50
2018-10-11T05:51:05.390Z,12.40
2018-10-11T05:53:33.511Z,12.40
2018-10-11T05:56:00.945Z,12.40
2018-10-11T05:58:29.657Z,12.40
2018-10-11T06:00:57.121Z,12.40
2018-10-11T06:03:24.633Z,12.40
2018-10-11T06:05:52.022Z,12.40
2018-10-11T06:08:19.466Z,12.40
2018-10-11T06:10:46.921Z,12.40
2018-10-11T06:13:14.301Z,12.40
2018-10-11T06:15:41.915Z,12.40
2018-10-11T06:18:10.165Z,12.40
2018-10-11T06:20:37.636Z,12.50
2018-10-11T06:23:05.096Z,12.40
2018-10-11T06:25:32.510Z,12.40
2018-10-11T06:27:59.952Z,12.40
2018-10-11T06:30:28.482Z,12.50
2018-10-11T06:32:56.142Z,12.50
2018-10-11T06:35:23.557Z,12.50
2018-10-11T06:37:51.079Z,12.50
2018-10-11T06:40:18.630Z,12.50
2018-10-11T06:42:46.201Z,12.50
2018-10-11T06:45:14.761Z,12.50
2018-10-11T06:47:43.755Z,12.50
2018-10-11T06:50:11.165Z,12.50
2018-10-11T06:52:38.649Z,12.50
2018-10-11T06:55:06.881Z,12.50
2018-10-11T06:57:34.297Z,12.50
2018-10-11T07:00:02.169Z,12.60
2018-10-11T07:02:30.346Z,12.50
2018-10-11T07:04:57.733Z,12.50
2018-10-11T07:07:25.254Z,12.60
2018-10-11T07:09:52.526Z,12.60
2018-10-11T07:12:20.025Z,12.60
2018-10-11T07:14:47.473Z,12.60
2018-10-11T07:17:15.519Z,12.60
2018-10-11T07:19:43.249Z,12.70
2018-10-11T07:22:10.597Z,12.70
2018-10-11T07:24:37.977Z,12.70
2018-10-11T07:27:05.437Z,12.70
2018-10-11T07:29:32.895Z,12.70
2018-10-11T07:32:00.331Z,12.70
2018-10-11T07:34:27.743Z,12.70
2018-10-11T07:36:55.125Z,12.70
2018-10-11T07:39:22.514Z,12.70
2018-10-11T07:41:49.913Z,12.70
2018-10-11T07:44:17.273Z,12.70
2018-10-11T07:46:44.649Z,12.80
2018-10-11T07:49:12.081Z,12.80
2018-10-11T07:51:39.514Z,12.80
2018-10-11T07:54:06.874Z,12.80
2018-10-11T07:56:34.201Z,12.90
2018-10-11T07:59:02.093Z,12.90
2018-10-11T08:01:30.377Z,13.00
2018-10-11T08:03:58.127Z,13.10
2018-10-11T08:06:25.603Z,13.10
2018-10-11T08:08:53.843Z,13.20
2018-10-11T08:11:21.605Z,13.30
2018-10-11T08:13:49.055Z,13.40
2018-10-11T08:16:16.484Z,13.50
2018-10-11T08:18:43.949Z,13.60
2018-10-11T08:21:11.330Z,13.60
2018-10-11T08:23:38.693Z,13.80
2018-10-11T08:26:07.068Z,13.80
2018-10-11T08:28:34.295Z,14.00
2018-10-11T08:31:01.636Z,14.10
2018-10-11T08:33:29.009Z,14.20
2018-10-11T08:35:56.329Z,14.30
2018-10-11T08:38:23.721Z,14.40
2018-10-11T08:40:51.014Z,14.60
2018-10-11T08:43:18.486Z,14.60
2018-10-11T08:45:45.874Z,14.70
2018-10-11T08:48:13.277Z,14.80
2018-10-11T08:50:40.839Z,14.90
2018-10-11T08:53:08.993Z,15.00
2018-10-11T08:55:36.433Z,15.10
2018-10-11T08:58:03.852Z,15.20
2018-10-11T09:00:31.481Z,15.20
2018-10-11T09:02:58.872Z,15.30
2018-10-11T09:05:26.230Z,15.40
2018-10-11T09:07:53.562Z,15.40
2018-10-11T09:10:20.938Z,15.50
2018-10-11T09:12:48.358Z,15.50
2018-10-11T09:15:15.781Z,15.50
2018-10-11T09:17:43.329Z,15.60
2018-10-11T09:20:10.710Z,15.60
2018-10-11T09:22:38.085Z,15.60
2018-10-11T09:25:05.493Z,15.70
2018-10-11T09:27:32.976Z,15.70
2018-10-11T09:30:00.357Z,15.80
2018-10-11T09:32:27.723Z,15.80
2018-10-11T09:34:55.182Z,15.90
2018-10-11T09:37:22.517Z,15.90
2018-10-11T09:39:49.861Z,15.90
2018-10-11T09:42:17.433Z,16.00
2018-10-11T09:44:44.785Z,16.00
2018-10-11T09:47:12.217Z,16.00
2018-10-11T09:49:39.675Z,16.10
2018-10-11T09:52:07.192Z,16.10
2018-10-11T09:54:34.598Z,16.20
2018-10-11T09:57:12.737Z,16.20
2018-10-11T09:59:40.178Z,16.20
2018-10-11T10:02:10.209Z,16.30
2018-10-11T10:04:38.902Z,16.30
2018-10-11T10:07:06.360Z,16.40
2018-10-11T10:09:33.677Z,16.40
2018-10-11T10:12:01.034Z,16.40
2018-10-11T10:14:28.444Z,16.40
2018-10-11T10:16:55.916Z,16.50
2018-10-11T10:19:23.281Z,16.50
2018-10-11T10:21:50.610Z,16.60
2018-10-11T10:24:17.981Z,16.60
2018-10-11T10:26:45.398Z,16.60
2018-10-11T10:29:12.772Z,16.70
2018-10-11T10:31:40.234Z,16.70
2018-10-11T10:34:07.879Z,16.80
2018-10-11T10:36:35.173Z,16.80
2018-10-11T10:39:03.067Z,16.80
2018-10-11T10:41:30.480Z,16.90
2018-10-11T10:43:58.053Z,16.90
2018-10-11T10:46:25.450Z,17.00
2018-10-11T10:48:52.989Z,17.00
2018-10-11T10:51:20.386Z,17.00
2018-10-11T10:53:47.730Z,17.00
2018-10-11T10:56:15.118Z,17.10
2018-10-11T10:58:42.494Z,17.10
2018-10-11T11:01:09.917Z,17.20
2018-10-11T11:03:37.262Z,17.20
2018-10-11T11:06:04.713Z,17.20
2018-10-11T11:08:32.623Z,17.20
2018-10-11T11:10:59.998Z,17.30
2018-10-11T11:13:27.337Z,17.40
2018-10-11T11:15:54.687Z,17.40
2018-10-11T11:18:21.997Z,17.50
2018-10-11T11:20:49.454Z,17.50
2018-10-11T11:23:16.843Z,17.50
2018-10-11T11:25:44.233Z,17.60
2018-10-11T11:28:11.603Z,17.60
2018-10-11T11:30:38.942Z,17.60
2018-10-11T11:33:06.341Z,17.70
2018-10-11T11:35:33.769Z,17.70
2018-10-11T11:38:01.170Z,17.70
2018-10-11T11:40:28.634Z,17.70
2018-10-11T11:43:02.852Z,17.80
2018-10-11T11:45:30.374Z,17.80
2018-10-11T11:47:57.773Z,17.90
2018-10-11T11:50:25.161Z,17.90
2018-10-11T11:52:52.477Z,18.00
2018-10-11T11:55:19.866Z,18.10
2018-10-11T11:57:47.249Z,18.00
2018-10-11T12:00:14.598Z,18.10
2018-10-11T12:02:42.000Z,18.20
2018-10-11T12:05:09.420Z,18.20
2018-10-11T12:07:36.813Z,18.20
2018-10-11T12:10:04.578Z,18.30
2018-10-11T12:13:07.929Z,18.30
2018-10-11T12:15:35.985Z,18.30
2018-10-11T12:18:04.305Z,18.30
2018-10-11T12:20:32.941Z,18.40
2018-10-11T12:23:01.582Z,18.40
2018-10-11T12:25:29.817Z,18.40
2018-10-11T12:27:57.209Z,18.50
2018-10-11T12:30:24.653Z,18.50
2018-10-11T12:32:58.884Z,18.60
2018-10-11T12:35:26.693Z,18.70
2018-10-11T12:37:54.083Z,18.70
2018-10-11T12:40:21.425Z,18.70
2018-10-11T12:42:48.757Z,18.80
2018-10-11T12:45:16.777Z,18.80
2018-10-11T12:47:44.112Z,18.80
2018-10-11T12:50:12.001Z,18.90
2018-10-11T12:52:39.482Z,18.90
2018-10-11T12:55:07.701Z,18.90
2018-10-11T12:57:35.010Z,19.00
2018-10-11T13:00:02.781Z,18.90
2018-10-11T13:02:30.221Z,19.00
2018-10-11T13:04:57.584Z,19.00
2018-10-11T13:07:24.969Z,19.10
2018-10-11T13:09:52.389Z,19.10
2018-10-11T13:12:19.847Z,19.10
2018-10-11T13:14:47.197Z,19.20
2018-10-11T13:17:14.573Z,19.20
2018-10-11T13:19:41.955Z,19.20
2018-10-11T13:22:09.343Z,19.30
2018-10-11T13:24:40.590Z,19.30
2018-10-11T13:27:04.256Z,19.30
2018-10-11T13:29:31.699Z,19.30
2018-10-11T13:31:59.038Z,19.40
2018-10-11T13:34:26.385Z,19.40
2018-10-11T13:36:53.837Z,19.40
2018-10-11T13:39:21.617Z,19.40
2018-10-11T13:41:48.796Z,19.50
2018-10-11T13:44:16.129Z,19.50
2018-10-11T13:46:43.497Z,19.50
2018-10-11T13:49:10.941Z,19.50
2018-10-11T13:51:38.320Z,19.50
2018-10-11T13:54:05.766Z,19.60
2018-10-11T13:56:33.817Z,19.60
2018-10-11T13:59:06.216Z,19.70
2018-10-11T14:01:28.614Z,19.70
2018-10-11T14:03:55.941Z,19.60
2018-10-11T14:06:23.438Z,19.70
2018-10-11T14:08:50.806Z,19.70
2018-10-11T14:11:18.207Z,19.70
2018-10-11T14:13:45.542Z,19.70
2018-10-11T14:16:12.919Z,19.80
2018-10-11T14:18:40.265Z,19.80
2018-10-11T14:21:08.622Z,19.80
2018-10-11T14:23:37.397Z,19.80
2018-10-11T14:26:04.837Z,19.80
2018-10-11T14:28:32.448Z,19.80
2018-10-11T14:30:59.931Z,19.80
2018-10-11T14:33:27.340Z,19.80
2018-10-11T14:35:54.693Z,19.90
2018-10-11T14:38:22.261Z,19.90
2018-10-11T14:40:49.617Z,19.90
2018-10-11T14:43:17.132Z,19.90
2018-10-11T14:45:44.751Z,19.90
2018-10-11T14:48:12.593Z,19.90
2018-10-11T14:50:39.961Z,19.90
2018-10-11T14:53:08.002Z,19.90
2018-10-11T14:55:35.466Z,19.90
2018-10-11T14:58:02.820Z,19.90
2018-10-11T15:00:30.435Z,19.90
2018-10-11T15:02:57.871Z,19.90
2018-10-11T15:05:25.420Z,19.90
2018-10-11T15:07:52.862Z,19.90
2018-10-11T15:10:20.264Z,19.90
2018-10-11T15:12:47.702Z,19.90
2018-10-11T15:15:15.053Z,19.90
2018-10-11T15:17:42.445Z,19.90
2018-10-11T15:20:09.813Z,19.90
2018-10-11T15:22:37.197Z,19.90
2018-10-11T15:25:05.402Z,19.90
2018-10-11T15:27:32.789Z,19.90
2018-10-11T15:30:00.204Z,19.90
2018-10-11T15:32:27.604Z,19.90
2018-10-11T15:34:54.946Z,19.90
2018-10-11T15:37:22.255Z,19.90
2018-10-11T15:39:49.618Z,19.90
2018-10-11T15:42:17.005Z,19.90
2018-10-11T15:44:44.369Z,19.80
2018-10-11T15:47:11.733Z,19.80
2018-10-11T15:49:39.147Z,19.80
2018-10-11T15:52:06.952Z,19.80
2018-10-11T15:54:35.031Z,19.80
2018-10-11T15:57:02.793Z,19.80
2018-10-11T15:59:30.146Z,19.80
2018-10-11T16:01:57.513Z,19.70
2018-10-11T16:04:24.857Z,19.70
2018-10-11T16:06:52.188Z,19.70
2018-10-11T16:09:19.599Z,19.70
2018-10-11T16:11:46.962Z,19.70
2018-10-11T16:14:14.322Z,19.60
2018-10-11T16:16:41.704Z,19.60
2018-10-11T16:19:09.049Z,19.60
2018-10-11T16:21:36.447Z,19.60
2018-10-11T16:24:03.790Z,19.50
2018-10-11T16:26:31.137Z,19.50
2018-10-11T16:28:58.874Z,19.40
2018-10-11T16:31:26.357Z,19.40
2018-10-11T16:33:53.729Z,19.40
2018-10-11T16:36:21.108Z,19.30
2018-10-11T16:38:48.518Z,19.30
2018-10-11T16:41:15.924Z,19.20
2018-10-11T16:43:43.338Z,19.20
2018-10-11T16:46:10.681Z,19.20
2018-10-11T16:48:38.062Z,19.10
2018-10-11T16:51:05.463Z,19.00
2018-10-11T16:53:32.809Z,18.90
2018-10-11T16:56:00.185Z,19.00
2018-10-11T16:58:27.620Z,18.90
2018-10-11T17:00:54.949Z,18.90
2018-10-11T17:03:22.665Z,18.80
2018-10-11T17:05:50.237Z,18.80
2018-10-11T17:08:17.621Z,18.80
2018-10-11T17:10:45.000Z,18.70
2018-10-11T17:13:12.381Z,18.60
2018-10-11T17:15:39.784Z,18.60
2018-10-11T17:18:07.253Z,18.60
2018-10-11T17:20:34.909Z,18.50
2018-10-11T17:23:02.311Z,18.50
2018-10-11T17:25:29.689Z,18.50
2018-10-11T17:27:57.218Z,18.40
2018-10-11T17:30:24.537Z,18.40
2018-10-11T17:32:51.941Z,18.30
2018-10-11T17:35:19.397Z,18.30
2018-10-11T17:37:46.686Z,18.30
2018-10-11T17:40:14.113Z,18.20
2018-10-11T17:42:41.655Z,18.20
2018-10-11T17:47:23.653Z,18.10
2018-10-11T17:49:51.030Z,18.10
2018-10-11T17:52:18.436Z,17.90
2018-10-11T17:54:55.656Z,17.90
2018-10-11T17:57:24.478Z,17.90
2018-10-11T17:59:51.944Z,17.80
2018-10-11T18:02:21.041Z,17.80
2018-10-11T18:04:48.925Z,17.70
2018-10-11T18:07:16.314Z,17.70
2018-10-11T18:09:43.805Z,17.60
2018-10-11T18:12:11.236Z,17.50
2018-10-11T18:14:38.702Z,17.50
2018-10-11T18:17:06.410Z,17.50
2018-10-11T18:19:33.804Z,17.40
2018-10-11T18:22:01.213Z,17.40
2018-10-11T18:24:28.564Z,17.40
2018-10-11T18:26:55.956Z,17.40
2018-10-11T18:29:23.464Z,17.40
2018-10-11T18:31:50.837Z,17.30
2018-10-11T18:34:18.502Z,17.30
2018-10-11T18:36:45.977Z,17.20
2018-10-11T18:39:14.342Z,17.10
2018-10-11T18:41:42.101Z,17.00
2018-10-11T18:44:10.071Z,17.10
2018-10-11T18:46:38.199Z,17.00
2018-10-11T18:49:05.778Z,17.00
2018-10-11T18:51:33.490Z,16.90
2018-10-11T18:54:00.927Z,16.90
2018-10-11T18:56:28.417Z,16.90
2018-10-11T18:58:55.874Z,16.90
2018-10-11T19:01:23.293Z,16.90
2018-10-11T19:03:50.770Z,16.80
2018-10-11T19:06:18.133Z,16.80
2018-10-11T19:08:45.525Z,16.80
2018-10-11T19:11:13.054Z,16.80
2018-10-11T19:13:40.429Z,16.70
2018-10-11T19:16:07.899Z,16.60
2018-10-11T19:18:36.022Z,16.60
2018-10-11T19:21:03.505Z,16.60
2018-10-11T19:23:31.062Z,16.60
2018-10-11T19:25:58.433Z,16.50
2018-10-11T19:28:25.778Z,16.50
2018-10-11T19:30:53.561Z,16.50
2018-10-11T19:33:21.061Z,16.50
2018-10-11T19:35:48.694Z,16.50
2018-10-11T19:38:16.121Z,16.50
2018-10-11T19:40:43.572Z,16.50
2018-10-11T19:43:10.965Z,16.50
2018-10-11T19:45:38.397Z,16.50
2018-10-11T19:48:05.865Z,16.50
2018-10-11T19:50:34.273Z,16.50
2018-10-11T19:53:01.702Z,16.40
2018-10-11T19:55:29.117Z,16.40
2018-10-11T19:57:56.505Z,16.30
2018-10-11T20:00:23.910Z,16.30
2018-10-11T20:02:51.466Z,16.30
2018-10-11T20:05:18.843Z,16.20
2018-10-11T20:07:46.226Z,16.20
2018-10-11T20:10:13.610Z,16.20
2018-10-11T20:12:41.313Z,16.20
2018-10-11T20:15:08.733Z,16.20
2018-10-11T20:17:36.459Z,16.10
2018-10-11T20:20:03.998Z,16.10
2018-10-11T20:22:31.400Z,16.10
2018-10-11T20:24:58.780Z,16.10
2018-10-11T20:27:26.306Z,16.20
2018-10-11T20:29:53.665Z,16.10
2018-10-11T20:32:21.051Z,16.10
2018-10-11T20:34:48.427Z,16.10
2018-10-11T20:37:15.848Z,16.10
2018-10-11T20:39:43.200Z,16.10
2018-10-11T20:42:10.546Z,16.10
2018-10-11T20:44:37.926Z,16.10
2018-10-11T20:47:05.462Z,16.10
2018-10-11T20:49:32.801Z,16.10
2018-10-11T20:52:00.128Z,16.00
2018-10-11T20:54:28.220Z,16.00
2018-10-11T20:56:55.590Z,16.00
2018-10-11T20:59:23.202Z,16.00
2018-10-11T21:01:50.545Z,16.00
2018-10-11T21:04:17.928Z,16.00
2018-10-11T21:06:45.318Z,16.00
2018-10-11T21:09:13.145Z,16.00
2018-10-11T21:11:40.782Z,16.00
2018-10-11T21:14:08.353Z,16.00
2018-10-11T21:16:36.529Z,15.90
2018-10-11T21:19:03.957Z,15.90
2018-10-11T21:21:31.935Z,15.90
2018-10-11T21:23:59.534Z,15.90
2018-10-11T21:26:27.031Z,15.90
2018-10-11T21:28:54.413Z,15.90
2018-10-11T21:31:21.746Z,15.90
2018-10-11T21:33:49.101Z,15.80
2018-10-11T21:36:16.540Z,15.80
2018-10-11T21:38:43.940Z,15.80
2018-10-11T21:41:12.322Z,15.70
2018-10-11T21:43:40.012Z,15.70
2018-10-11T21:46:09.920Z,15.70
2018-10-11T21:48:40.984Z,15.70
2018-10-11T21:51:08.787Z,15.60
2018-10-11T21:53:36.263Z,15.60
2018-10-11T21:56:03.730Z,15.70
2018-10-11T21:58:31.268Z,15.60
2018-10-11T22:01:04.440Z,15.60
2018-10-11T22:03:32.627Z,15.60
2018-10-11T22:06:00.300Z,15.60
2018-10-11T22:08:28.036Z,15.60
2018-10-11T22:10:55.699Z,15.60
2018-10-11T22:13:23.955Z,15.50
2018-10-11T22:15:51.707Z,15.50
2018-10-11T22:18:19.443Z,15.50
2018-10-11T22:20:47.282Z,15.50
2018-10-11T22:23:15.152Z,15.50
2018-10-11T22:25:42.779Z,15.40
2018-10-11T22:28:10.407Z,15.40
2018-10-11T22:30:38.190Z,15.30
2018-10-11T22:33:05.927Z,15.30
2018-10-11T22:35:34.182Z,15.30
2018-10-11T22:38:01.968Z,15.20
2018-10-11T22:40:30.296Z,15.20
2018-10-11T22:42:58.375Z,15.20
2018-10-11T22:45:26.888Z,15.20
2018-10-11T22:47:55.539Z,15.20
2018-10-11T22:50:26.365Z,15.20
2018-10-11T22:52:54.646Z,15.20
2018-10-11T22:55:22.635Z,15.20
2018-10-11T22:57:50.320Z,15.20
2018-10-11T23:00:18.276Z,15.10
2018-10-11T23:02:45.989Z,15.00
2018-10-11T23:05:13.710Z,15.00
2018-10-11T23:07:41.576Z,14.90
2018-10-11T23:10:09.189Z,14.90
2018-10-11T23:12:37.154Z,14.90
2018-10-11T23:15:05.413Z,14.90
2018-10-11T23:17:33.236Z,14.90
2018-10-11T23:20:00.944Z,14.80
2018-10-11T23:22:28.607Z,14.80
2018-10-11T23:24:56.279Z,14.80
2018-10-11T23:27:24.113Z,14.80
2018-10-11T23:29:51.923Z,14.70
2018-10-11T23:32:19.378Z,14.70
2018-10-11T23:34:46.733Z,14.70
2018-10-11T23:37:14.065Z,14.70
2018-10-11T23:39:41.885Z,14.70
2018-10-11T23:42:09.273Z,14.70
2018-10-11T23:44:37.057Z,14.60
2018-10-11T23:47:04.518Z,14.60
2018-10-11T23:49:31.874Z,14.50
2018-10-11T23:51:59.230Z,14.50
2018-10-11T23:54:26.637Z,14.40
2018-10-11T23:56:54.020Z,14.40
2018-10-11T23:59:29.467Z,14.40
